Time;durP1;ratioP1;P1;durP2;ratioP2;P2;SDS_P1;SDS_P2;PMS_P1;PMS_P2;Temp;Humidity;BMP_temperature;BMP_pressure;BME280_temperature;BME280_humidity;BME280_pressure;Samples;Min_cycle;Max_cycle;Signal;HPM_P1;HPM_P2
2021/01/05 00:03:48;;;;;;;7.50;5.00;;;;;;;;;;12888250;22;20176;-61
2021/01/05 00:08:50;;;;;;;9.20;5.30;;;;;;;;;;12887111;23;20175;-61
2021/01/05 00:13:52;;;;;;;13.37;5.60;;;;;;;;;;12887585;23;20183;-61
2021/01/05 00:18:54;;;;;;;8.70;5.30;;;;;;;;;;12889365;23;20209;-61
2021/01/05 00:23:57;;;;;;;9.60;5.33;;;;;;;;;;12886800;23;20179;-60
2021/01/05 00:28:59;;;;;;;9.00;5.00;;;;;;;;;;12889989;23;20175;-62
2021/01/05 00:34:02;;;;;;;10.97;5.50;;;;;;;;;;12886070;23;20198;-62
2021/01/05 00:39:06;;;;;;;7.70;5.33;;;;;;;;;;12888813;23;20277;-62
2021/01/05 00:44:07;;;;;;;8.40;5.57;;;;;;;;;;12886019;23;20179;-61
2021/01/05 00:49:09;;;;;;;9.67;5.80;;;;;;;;;;12887347;23;20210;-62
2021/01/05 00:54:12;;;;;;;8.33;5.20;;;;;;;;;;12885728;23;20217;-62
2021/01/05 00:59:13;;;;;;;7.70;5.03;;;;;;;;;;12887940;23;20237;-61
2021/01/05 01:04:15;;;;;;;8.23;5.43;;;;;;;;;;12890335;23;20206;-61
2021/01/05 01:09:18;;;;;;;6.73;5.00;;;;;;;;;;12887007;23;20182;-62
2021/01/05 01:14:20;;;;;;;10.67;5.37;;;;;;;;;;12887947;23;20197;-61
2021/01/05 01:19:21;;;;;;;9.27;4.93;;;;;;;;;;12884531;23;20997;-62
2021/01/05 01:24:24;;;;;;;6.87;4.77;;;;;;;;;;12886703;23;20171;-61
2021/01/05 01:29:27;;;;;;;7.20;5.23;;;;;;;;;;12885756;23;20182;-62
2021/01/05 01:34:29;;;;;;;10.23;5.50;;;;;;;;;;12887746;23;20183;-62
2021/01/05 01:39:32;;;;;;;8.70;5.30;;;;;;;;;;12883841;23;20206;-61
2021/01/05 01:44:34;;;;;;;8.10;5.60;;;;;;;;;;12888010;23;20180;-62
2021/01/05 01:49:36;;;;;;;6.97;5.30;;;;;;;;;;12884721;23;20633;-63
2021/01/05 01:54:58;;;;;;;8.07;5.67;;;;;;;;;;12885146;23;20207;-62
2021/01/05 02:00:11;;;;;;;9.00;5.63;;;;;;;;;;12886601;23;20221;-60
2021/01/05 02:05:14;;;;;;;11.53;6.20;;;;;;;;;;12884550;23;20182;-61
2021/01/05 02:10:23;;;;;;;9.37;6.33;;;;;;;;;;12884183;23;20175;-61
2021/01/05 02:15:29;;;;;;;9.00;6.23;;;;;;;;;;12885835;23;20500;-60
2021/01/05 02:20:33;;;;;;;10.53;6.13;;;;;;;;;;12884631;23;20373;-61
2021/01/05 02:25:42;;;;;;;10.10;6.67;;;;;;;;;;12886927;23;20175;-61
2021/01/05 02:30:45;;;;;;;12.20;6.80;;;;;;;;;;12884802;23;20198;-60
2021/01/05 02:35:59;;;;;;;10.07;5.70;;;;;;;;;;12884328;23;20962;-61
2021/01/05 02:41:17;;;;;;;12.83;6.00;;;;;;;;;;12884123;23;20214;-61
2021/01/05 02:46:28;;;;;;;10.73;6.87;;;;;;;;;;12884672;23;20596;-60
2021/01/05 02:51:32;;;;;;;10.50;6.40;;;;;;;;;;12881455;23;20507;-61
2021/01/05 02:56:54;;;;;;;11.03;6.27;;;;;;;;;;12885330;23;20167;-61
2021/01/05 03:02:20;;;;;;;11.23;5.87;;;;;;;;;;12875735;23;20552;-62
2021/01/05 03:07:25;;;;;;;11.50;7.20;;;;;;;;;;12862058;23;20186;-62
2021/01/05 03:12:36;;;;;;;12.13;6.40;;;;;;;;;;12884122;23;20664;-52
2021/01/05 03:17:43;;;;;;;11.37;6.83;;;;;;;;;;12886654;23;20174;-54
2021/01/05 03:22:51;;;;;;;11.00;6.83;;;;;;;;;;12883948;23;20167;-57
2021/01/05 03:27:54;;;;;;;11.37;7.03;;;;;;;;;;12886422;23;20167;-55
2021/01/05 03:32:56;;;;;;;10.30;6.80;;;;;;;;;;12883652;23;20202;-56
2021/01/05 03:37:59;;;;;;;10.83;6.67;;;;;;;;;;12885020;23;20276;-55
2021/01/05 03:43:01;;;;;;;9.80;6.23;;;;;;;;;;12884969;23;20179;-57
2021/01/05 03:48:03;;;;;;;9.77;5.63;;;;;;;;;;12886193;23;20522;-57
2021/01/05 03:53:06;;;;;;;8.60;5.87;;;;;;;;;;12880399;23;20672;-57
2021/01/05 03:58:07;;;;;;;11.47;6.57;;;;;;;;;;12885504;23;20207;-56
2021/01/05 04:03:09;;;;;;;9.07;5.80;;;;;;;;;;12885818;23;20175;-56
2021/01/05 04:08:12;;;;;;;9.53;6.13;;;;;;;;;;12887166;23;21079;-55
2021/01/05 04:13:13;;;;;;;9.50;6.00;;;;;;;;;;12889165;23;20179;-56
2021/01/05 04:18:15;;;;;;;10.00;5.67;;;;;;;;;;12889285;23;20203;-56
2021/01/05 04:23:18;;;;;;;10.00;6.53;;;;;;;;;;12886480;23;20182;-57
2021/01/05 04:28:20;;;;;;;11.00;6.67;;;;;;;;;;12889017;23;20517;-57
2021/01/05 04:33:21;;;;;;;11.80;6.73;;;;;;;;;;12886352;23;20182;-56
2021/01/05 04:38:24;;;;;;;10.83;6.47;;;;;;;;;;12888680;23;20290;-56
2021/01/05 04:43:36;;;;;;;9.23;6.13;;;;;;;;;;12887658;23;20175;-55
2021/01/05 04:48:39;;;;;;;12.73;6.57;;;;;;;;;;12910376;23;20209;-54
2021/01/05 04:53:43;;;;;;;10.63;6.80;;;;;;;;;;12885909;23;20736;-55
2021/01/05 04:58:46;;;;;;;11.93;6.83;;;;;;;;;;12888569;23;21047;-54
2021/01/05 05:03:55;;;;;;;11.33;6.53;;;;;;;;;;12887608;23;20179;-55
2021/01/05 05:09:03;;;;;;;10.73;6.20;;;;;;;;;;12908429;23;20175;-57
2021/01/05 05:14:08;;;;;;;12.73;6.40;;;;;;;;;;12911863;23;20218;-56
2021/01/05 05:19:14;;;;;;;12.70;7.07;;;;;;;;;;12909511;23;20199;-54
2021/01/05 05:24:30;;;;;;;14.57;7.67;;;;;;;;;;12907573;23;20644;-55
2021/01/05 05:29:40;;;;;;;13.77;7.27;;;;;;;;;;12908572;23;20167;-55
2021/01/05 05:34:48;;;;;;;13.93;7.53;;;;;;;;;;12887229;23;20183;-58
2021/01/05 05:40:05;;;;;;;15.20;7.93;;;;;;;;;;12904797;23;20209;-57
2021/01/05 05:45:10;;;;;;;13.30;7.60;;;;;;;;;;12907599;23;20696;-56
2021/01/05 05:50:15;;;;;;;15.43;8.27;;;;;;;;;;12905543;23;20353;-57
2021/01/05 05:55:22;;;;;;;18.30;8.87;;;;;;;;;;12884738;23;20206;-57
2021/01/05 06:00:30;;;;;;;17.17;9.10;;;;;;;;;;12884016;23;20548;-56
2021/01/05 06:05:33;;;;;;;16.47;8.43;;;;;;;;;;12906489;23;20175;-56
2021/01/05 06:10:35;;;;;;;17.77;9.07;;;;;;;;;;12884495;23;20546;-56
2021/01/05 06:15:37;;;;;;;17.60;8.70;;;;;;;;;;12886589;23;20183;-54
2021/01/05 06:20:39;;;;;;;20.20;9.10;;;;;;;;;;12883771;23;20211;-55
2021/01/05 06:25:41;;;;;;;19.03;9.90;;;;;;;;;;12885069;23;20175;-56
2021/01/05 06:30:43;;;;;;;19.93;9.40;;;;;;;;;;12885168;23;20179;-55
2021/01/05 06:35:45;;;;;;;20.63;10.27;;;;;;;;;;12886003;23;20177;-56
2021/01/05 06:40:47;;;;;;;21.73;10.93;;;;;;;;;;12882864;23;20216;-55
2021/01/05 06:45:50;;;;;;;22.23;10.27;;;;;;;;;;12885711;23;20183;-55
2021/01/05 06:50:51;;;;;;;17.77;9.10;;;;;;;;;;12882600;23;20657;-56
2021/01/05 06:55:53;;;;;;;18.93;10.07;;;;;;;;;;12885222;23;20539;-56
2021/01/05 07:00:56;;;;;;;20.63;10.40;;;;;;;;;;12884668;23;20214;-58
2021/01/05 07:05:59;;;;;;;19.93;10.27;;;;;;;;;;12885211;23;20202;-56
2021/01/05 07:11:01;;;;;;;20.50;9.97;;;;;;;;;;12881194;23;20182;-55
2021/01/05 07:16:03;;;;;;;23.17;10.93;;;;;;;;;;12884608;23;20202;-59
2021/01/05 07:21:05;;;;;;;23.30;10.93;;;;;;;;;;12880400;23;20520;-57
2021/01/05 07:26:07;;;;;;;23.83;10.90;;;;;;;;;;12885410;23;20179;-56
2021/01/05 07:31:10;;;;;;;24.23;10.87;;;;;;;;;;12883437;23;20507;-56
2021/01/05 07:36:20;;;;;;;24.00;11.47;;;;;;;;;;12881239;23;20183;-58
2021/01/05 07:41:22;;;;;;;23.30;11.50;;;;;;;;;;12910617;23;20202;-55
2021/01/05 07:46:25;;;;;;;21.97;10.90;;;;;;;;;;12887821;23;20692;-56
2021/01/05 07:51:26;;;;;;;24.73;11.40;;;;;;;;;;12886104;23;20531;-55
2021/01/05 07:56:28;;;;;;;21.77;11.20;;;;;;;;;;12884531;23;20211;-55
2021/01/05 08:01:31;;;;;;;22.70;10.60;;;;;;;;;;12870969;23;20206;-56
2021/01/05 08:06:33;;;;;;;19.57;10.70;;;;;;;;;;12883159;23;20179;-61
2021/01/05 08:11:36;;;;;;;21.27;10.70;;;;;;;;;;12886403;23;20171;-62
2021/01/05 08:16:38;;;;;;;21.33;10.77;;;;;;;;;;12883837;23;20175;-62
2021/01/05 08:21:40;;;;;;;21.57;10.17;;;;;;;;;;12886240;23;20203;-62
2021/01/05 08:26:43;;;;;;;23.20;10.83;;;;;;;;;;12885895;23;20241;-62
2021/01/05 08:31:47;;;;;;;22.33;10.80;;;;;;;;;;12888630;23;20179;-63
2021/01/05 08:36:49;;;;;;;22.60;11.33;;;;;;;;;;12881881;23;20171;-62
2021/01/05 08:41:53;;;;;;;21.73;10.77;;;;;;;;;;12875161;23;20674;-62
2021/01/05 08:46:59;;;;;;;21.93;11.03;;;;;;;;;;12881456;23;20182;-62
2021/01/05 08:52:01;;;;;;;23.30;10.57;;;;;;;;;;12885032;23;20249;-62
2021/01/05 08:57:04;;;;;;;23.50;11.63;;;;;;;;;;12884295;23;20182;-62
2021/01/05 09:02:08;;;;;;;22.87;12.17;;;;;;;;;;12886885;23;20214;-63
2021/01/05 09:07:10;;;;;;;23.83;11.17;;;;;;;;;;12881276;23;20637;-63
2021/01/05 09:12:11;;;;;;;21.00;11.20;;;;;;;;;;12883703;23;20520;-61
2021/01/05 09:17:16;;;;;;;23.93;12.33;;;;;;;;;;12879855;23;20617;-62
2021/01/05 09:22:20;;;;;;;23.20;11.57;;;;;;;;;;12884467;23;20206;-63
2021/01/05 09:27:22;;;;;;;19.57;10.50;;;;;;;;;;12881153;23;20330;-62
2021/01/05 09:32:25;;;;;;;20.17;10.40;;;;;;;;;;12885291;23;20680;-64
2021/01/05 09:37:26;;;;;;;20.67;10.63;;;;;;;;;;12881973;23;20194;-64
2021/01/05 09:42:28;;;;;;;19.77;10.37;;;;;;;;;;12885289;23;20205;-63
2021/01/05 09:47:31;;;;;;;18.03;9.20;;;;;;;;;;12890550;23;20175;-63
2021/01/05 09:52:33;;;;;;;16.10;8.20;;;;;;;;;;12880404;23;20207;-63
2021/01/05 09:57:35;;;;;;;18.23;8.67;;;;;;;;;;12886354;23;20170;-63
2021/01/05 10:02:38;;;;;;;17.13;8.97;;;;;;;;;;12884281;23;20210;-63
2021/01/05 10:07:40;;;;;;;18.43;8.90;;;;;;;;;;12884961;23;20270;-63
2021/01/05 10:12:41;;;;;;;19.30;9.60;;;;;;;;;;12883588;23;20706;-62
2021/01/05 10:17:44;;;;;;;20.00;9.80;;;;;;;;;;12884761;23;20665;-62
2021/01/05 10:22:46;;;;;;;19.90;8.90;;;;;;;;;;12881650;23;20203;-62
2021/01/05 10:27:49;;;;;;;18.67;9.57;;;;;;;;;;12885941;23;20203;-63
2021/01/05 10:32:52;;;;;;;17.10;8.60;;;;;;;;;;12883691;23;20175;-63
2021/01/05 10:37:54;;;;;;;14.33;8.00;;;;;;;;;;12872993;23;20624;-63
2021/01/05 10:42:57;;;;;;;16.03;8.67;;;;;;;;;;12882016;23;20297;-63
2021/01/05 10:47:59;;;;;;;16.70;8.27;;;;;;;;;;12885884;23;20186;-63
2021/01/05 10:53:01;;;;;;;14.97;7.87;;;;;;;;;;12879444;23;20218;-63
2021/01/05 10:58:03;;;;;;;17.47;8.07;;;;;;;;;;12882850;23;20183;-63
2021/01/05 11:03:06;;;;;;;17.43;9.10;;;;;;;;;;12873713;23;20538;-63
2021/01/05 11:08:08;;;;;;;14.23;8.20;;;;;;;;;;12882877;23;20175;-63
2021/01/05 11:13:10;;;;;;;17.23;8.40;;;;;;;;;;12882695;23;20183;-63
2021/01/05 11:18:13;;;;;;;13.37;7.80;;;;;;;;;;12883591;23;20202;-61
2021/01/05 11:23:14;;;;;;;12.13;6.43;;;;;;;;;;12879734;23;20202;-63
2021/01/05 11:28:16;;;;;;;10.90;6.30;;;;;;;;;;12872063;23;20179;-62
2021/01/05 11:33:18;;;;;;;12.53;6.67;;;;;;;;;;12872843;23;20178;-62
2021/01/05 11:38:20;;;;;;;12.87;6.60;;;;;;;;;;12875858;23;20189;-62
2021/01/05 11:43:22;;;;;;;16.60;7.00;;;;;;;;;;12875766;23;20207;-62
2021/01/05 11:48:25;;;;;;;11.50;6.17;;;;;;;;;;12879662;23;20190;-62
2021/01/05 11:53:28;;;;;;;13.43;6.97;;;;;;;;;;12875046;23;20210;-62
2021/01/05 11:58:29;;;;;;;13.73;6.63;;;;;;;;;;12879305;23;20634;-62
2021/01/05 12:03:32;;;;;;;15.10;8.23;;;;;;;;;;12879656;23;20438;-64
2021/01/05 12:08:34;;;;;;;13.33;7.37;;;;;;;;;;12879466;23;20186;-62
2021/01/05 12:13:36;;;;;;;14.50;7.40;;;;;;;;;;12883657;23;20175;-61
2021/01/05 12:18:39;;;;;;;14.13;7.27;;;;;;;;;;12881482;23;20190;-63
2021/01/05 12:23:41;;;;;;;14.27;6.60;;;;;;;;;;12884190;23;20203;-61
2021/01/05 12:28:43;;;;;;;13.03;7.10;;;;;;;;;;12885665;23;20586;-63
2021/01/05 12:33:46;;;;;;;14.67;6.87;;;;;;;;;;12887146;23;20183;-64
2021/01/05 12:38:47;;;;;;;13.70;7.30;;;;;;;;;;12882795;23;20185;-63
2021/01/05 12:43:50;;;;;;;16.17;7.43;;;;;;;;;;12885308;23;20646;-62
2021/01/05 12:48:52;;;;;;;15.73;7.10;;;;;;;;;;12885137;23;20187;-63
2021/01/05 12:54:11;;;;;;;14.80;7.60;;;;;;;;;;12886151;23;20268;-62
2021/01/05 12:59:32;;;;;;;15.67;7.80;;;;;;;;;;12903676;23;20588;-63
2021/01/05 13:04:35;;;;;;;13.10;7.07;;;;;;;;;;12888096;23;20177;-63
2021/01/05 13:09:37;;;;;;;11.87;6.60;;;;;;;;;;12883471;23;20179;-63
2021/01/05 13:14:39;;;;;;;14.07;6.63;;;;;;;;;;12886661;23;20179;-62
2021/01/05 13:19:41;;;;;;;13.57;7.27;;;;;;;;;;12884750;23;20202;-62
2021/01/05 13:24:43;;;;;;;12.93;6.60;;;;;;;;;;12886560;23;20179;-62
2021/01/05 13:29:45;;;;;;;12.87;6.70;;;;;;;;;;12885137;23;20175;-63
2021/01/05 13:34:49;;;;;;;12.60;6.80;;;;;;;;;;12888577;23;20175;-62
2021/01/05 13:39:52;;;;;;;12.83;6.37;;;;;;;;;;12887251;23;20277;-62
2021/01/05 13:44:54;;;;;;;14.80;7.47;;;;;;;;;;12885913;23;20183;-63
2021/01/05 13:49:57;;;;;;;16.87;8.20;;;;;;;;;;12881760;23;20955;-63
2021/01/05 13:55:16;;;;;;;14.97;7.70;;;;;;;;;;12886948;23;20215;-63
2021/01/05 14:00:18;;;;;;;15.00;7.57;;;;;;;;;;12882768;23;20317;-62
2021/01/05 14:05:21;;;;;;;17.23;8.30;;;;;;;;;;12885058;23;20179;-61
2021/01/05 14:10:23;;;;;;;19.20;9.13;;;;;;;;;;12882116;23;20179;-62
2021/01/05 14:15:26;;;;;;;16.20;7.80;;;;;;;;;;12884065;23;20490;-62
2021/01/05 14:20:29;;;;;;;17.47;8.50;;;;;;;;;;12881506;23;20284;-63
2021/01/05 14:25:30;;;;;;;16.60;8.33;;;;;;;;;;12881347;23;20568;-63
2021/01/05 14:30:32;;;;;;;17.77;8.67;;;;;;;;;;12885512;23;20696;-62
2021/01/05 14:35:35;;;;;;;17.17;8.70;;;;;;;;;;12881215;23;20175;-63
2021/01/05 14:40:37;;;;;;;18.93;9.43;;;;;;;;;;12883939;23;20653;-63
2021/01/05 14:45:39;;;;;;;20.27;9.47;;;;;;;;;;12881094;23;20175;-63
2021/01/05 14:50:43;;;;;;;18.43;8.30;;;;;;;;;;12881635;23;20509;-62
2021/01/05 14:55:45;;;;;;;17.50;8.50;;;;;;;;;;12880158;23;20932;-63
2021/01/05 15:00:47;;;;;;;17.77;8.20;;;;;;;;;;12872689;23;20206;-63
2021/01/05 15:05:49;;;;;;;22.43;9.80;;;;;;;;;;12881657;23;20186;-63
2021/01/05 15:10:51;;;;;;;19.60;8.53;;;;;;;;;;12883608;23;20175;-63
2021/01/05 15:15:53;;;;;;;21.33;9.93;;;;;;;;;;12878354;23;20265;-64
2021/01/05 15:20:56;;;;;;;20.00;10.00;;;;;;;;;;12883576;23;20207;-63
2021/01/05 15:25:58;;;;;;;26.70;9.53;;;;;;;;;;12873108;23;20179;-63
2021/01/05 15:31:00;;;;;;;18.03;8.70;;;;;;;;;;12881239;23;20186;-63
2021/01/05 15:36:05;;;;;;;22.43;9.03;;;;;;;;;;12881894;23;20199;-62
2021/01/05 15:41:07;;;;;;;20.63;9.43;;;;;;;;;;12885691;23;20465;-61
2021/01/05 15:46:19;;;;;;;25.00;9.70;;;;;;;;;;12882528;23;20182;-61
2021/01/05 15:56:28;;;;;;;21.40;10.17;;;;;;;;;;12879114;22;20194;-62
2021/01/05 16:01:32;;;;;;;21.23;10.30;;;;;;;;;;12889287;23;20211;-62
2021/01/05 16:06:40;;;;;;;23.70;11.30;;;;;;;;;;12887080;23;20175;-63
2021/01/05 16:11:48;;;;;;;26.67;11.33;;;;;;;;;;12904632;23;20601;-61
2021/01/05 16:16:53;;;;;;;26.60;11.33;;;;;;;;;;12907842;23;20163;-63
2021/01/05 16:21:56;;;;;;;22.60;10.60;;;;;;;;;;12887734;23;20213;-61
2021/01/05 16:26:59;;;;;;;21.60;9.80;;;;;;;;;;12886364;23;20179;-62
2021/01/05 16:32:03;;;;;;;19.97;10.03;;;;;;;;;;12888727;23;20175;-61
2021/01/05 16:37:06;;;;;;;19.37;9.70;;;;;;;;;;12885559;23;20177;-61
2021/01/05 16:42:12;;;;;;;24.43;10.27;;;;;;;;;;12910228;23;20207;-61
2021/01/05 16:47:13;;;;;;;25.53;10.27;;;;;;;;;;12893597;23;20446;-61
2021/01/05 16:52:15;;;;;;;21.23;10.60;;;;;;;;;;12886337;23;20195;-61
2021/01/05 16:57:18;;;;;;;21.23;10.37;;;;;;;;;;12889511;23;20205;-60
2021/01/05 17:02:20;;;;;;;22.23;11.43;;;;;;;;;;12878383;23;20233;-61
2021/01/05 17:07:24;;;;;;;23.47;11.00;;;;;;;;;;12882967;23;20182;-61
2021/01/05 17:12:27;;;;;;;23.43;12.13;;;;;;;;;;12880427;23;20181;-62
2021/01/05 17:17:32;;;;;;;24.07;12.10;;;;;;;;;;12882527;23;20512;-62
2021/01/05 17:22:33;;;;;;;26.87;13.63;;;;;;;;;;12877575;23;20203;-62
2021/01/05 17:27:36;;;;;;;26.47;13.23;;;;;;;;;;12880715;23;20186;-61
2021/01/05 17:32:38;;;;;;;28.33;14.30;;;;;;;;;;12882394;23;20179;-60
2021/01/05 17:37:40;;;;;;;28.33;13.90;;;;;;;;;;12881387;23;20258;-60
2021/01/05 17:42:43;;;;;;;24.23;13.50;;;;;;;;;;12877347;23;20207;-60
2021/01/05 17:47:44;;;;;;;27.60;13.93;;;;;;;;;;12879294;23;20645;-62
2021/01/05 17:52:46;;;;;;;27.23;14.43;;;;;;;;;;12878218;23;20195;-62
2021/01/05 17:57:49;;;;;;;24.17;13.10;;;;;;;;;;12881927;23;20654;-62
2021/01/05 18:02:51;;;;;;;26.77;13.33;;;;;;;;;;12879745;23;20970;-62
2021/01/05 18:07:53;;;;;;;25.23;12.83;;;;;;;;;;12879189;23;20202;-61
2021/01/05 18:12:57;;;;;;;27.73;13.80;;;;;;;;;;12878851;23;20760;-61
2021/01/05 18:18:02;;;;;;;28.70;14.87;;;;;;;;;;12900648;23;20167;-61
2021/01/05 18:23:08;;;;;;;28.10;15.30;;;;;;;;;;12896954;23;20817;-61
2021/01/05 18:28:10;;;;;;;30.67;15.47;;;;;;;;;;12880461;23;20659;-63
2021/01/05 18:33:12;;;;;;;31.70;16.00;;;;;;;;;;12900228;23;20633;-61
2021/01/05 18:38:14;;;;;;;39.13;17.50;;;;;;;;;;12878529;23;20189;-62
2021/01/05 18:43:17;;;;;;;34.20;16.40;;;;;;;;;;12876930;23;20203;-61
2021/01/05 18:48:24;;;;;;;31.93;16.10;;;;;;;;;;12882318;23;20214;-61
2021/01/05 18:53:25;;;;;;;30.40;15.73;;;;;;;;;;12883933;23;20274;-63
2021/01/05 18:58:28;;;;;;;29.77;15.33;;;;;;;;;;12882326;23;20202;-63
2021/01/05 19:03:31;;;;;;;36.17;16.37;;;;;;;;;;12876546;23;20217;-61
2021/01/05 19:08:33;;;;;;;31.00;16.03;;;;;;;;;;12879741;23;20175;-61
2021/01/05 19:13:35;;;;;;;38.33;16.60;;;;;;;;;;12875907;23;20182;-61
2021/01/05 19:18:37;;;;;;;32.33;16.00;;;;;;;;;;12878152;23;20384;-62
2021/01/05 19:23:39;;;;;;;34.80;16.63;;;;;;;;;;12878783;23;21141;-61
2021/01/05 19:28:42;;;;;;;32.33;16.23;;;;;;;;;;12879483;23;20808;-61
2021/01/05 19:33:44;;;;;;;35.90;16.87;;;;;;;;;;12885819;23;20179;-61
2021/01/05 19:38:46;;;;;;;33.37;16.77;;;;;;;;;;12882691;23;20179;-62
2021/01/05 19:43:49;;;;;;;36.27;17.23;;;;;;;;;;12883937;23;20213;-60
2021/01/05 19:48:51;;;;;;;35.93;17.17;;;;;;;;;;12877669;23;20766;-62
2021/01/05 19:53:53;;;;;;;35.80;17.83;;;;;;;;;;12881977;23;20702;-62
2021/01/05 19:58:56;;;;;;;33.63;16.53;;;;;;;;;;12879531;23;20805;-61
2021/01/05 20:03:58;;;;;;;32.10;16.60;;;;;;;;;;12881923;23;20289;-62
2021/01/05 20:09:00;;;;;;;34.60;16.53;;;;;;;;;;12880259;23;20569;-62
2021/01/05 20:14:04;;;;;;;34.93;16.50;;;;;;;;;;12883818;23;20234;-62
2021/01/05 20:19:05;;;;;;;31.97;16.00;;;;;;;;;;12882487;23;20179;-61
2021/01/05 20:24:08;;;;;;;32.03;15.57;;;;;;;;;;12878711;23;20289;-62
2021/01/05 20:29:10;;;;;;;36.23;15.47;;;;;;;;;;12879290;23;20183;-62
2021/01/05 20:34:12;;;;;;;32.83;14.93;;;;;;;;;;12878628;23;20182;-63
2021/01/05 20:39:14;;;;;;;28.67;14.33;;;;;;;;;;12882725;23;20450;-62
2021/01/05 20:44:17;;;;;;;26.47;13.13;;;;;;;;;;12878825;23;20203;-62
2021/01/05 20:49:19;;;;;;;29.20;13.10;;;;;;;;;;12883344;23;20179;-61
2021/01/05 20:54:21;;;;;;;28.80;14.17;;;;;;;;;;12878248;23;20199;-61
2021/01/05 20:59:24;;;;;;;27.53;13.70;;;;;;;;;;12881815;23;20544;-61
2021/01/05 21:04:25;;;;;;;28.07;13.00;;;;;;;;;;12879220;23;20218;-62
2021/01/05 21:09:27;;;;;;;27.07;13.50;;;;;;;;;;12881628;23;20542;-61
2021/01/05 21:14:30;;;;;;;25.53;13.20;;;;;;;;;;12879452;23;20182;-62
2021/01/05 21:19:34;;;;;;;27.57;13.10;;;;;;;;;;12881147;23;20203;-61
2021/01/05 21:24:36;;;;;;;27.03;13.47;;;;;;;;;;12877162;23;20175;-63
2021/01/05 21:29:39;;;;;;;28.50;13.10;;;;;;;;;;12879804;23;20182;-61
2021/01/05 21:34:41;;;;;;;28.03;13.23;;;;;;;;;;12883440;23;20178;-62
2021/01/05 21:39:42;;;;;;;30.47;13.77;;;;;;;;;;12886779;23;20179;-62
2021/01/05 21:44:45;;;;;;;26.70;13.77;;;;;;;;;;12886884;23;20190;-62
2021/01/05 21:49:47;;;;;;;28.97;13.53;;;;;;;;;;12888163;23;20276;-61
2021/01/05 21:54:49;;;;;;;28.13;13.60;;;;;;;;;;12886611;23;20206;-62
2021/01/05 21:59:51;;;;;;;29.00;13.60;;;;;;;;;;12888125;23;20681;-62
2021/01/05 22:04:53;;;;;;;30.43;14.90;;;;;;;;;;12887068;23;20171;-62
2021/01/05 22:09:57;;;;;;;28.13;13.87;;;;;;;;;;12887624;23;20185;-61
2021/01/05 22:15:00;;;;;;;29.53;14.00;;;;;;;;;;12889466;23;20500;-61
2021/01/05 22:20:03;;;;;;;27.77;13.90;;;;;;;;;;12886324;23;20198;-61
2021/01/05 22:25:05;;;;;;;28.80;15.07;;;;;;;;;;12886342;23;20895;-61
2021/01/05 22:30:09;;;;;;;29.10;14.43;;;;;;;;;;12885742;23;20256;-61
2021/01/05 22:35:12;;;;;;;29.63;14.23;;;;;;;;;;12887000;23;20246;-60
2021/01/05 22:40:15;;;;;;;25.17;13.53;;;;;;;;;;12885117;23;20207;-61
2021/01/05 22:45:21;;;;;;;25.70;13.47;;;;;;;;;;12888529;23;20182;-61
2021/01/05 22:50:23;;;;;;;30.23;14.13;;;;;;;;;;12903621;23;20628;-61
2021/01/05 22:55:25;;;;;;;23.50;12.20;;;;;;;;;;12886164;23;20725;-62
2021/01/05 23:00:29;;;;;;;23.93;11.80;;;;;;;;;;12885649;23;20213;-61
2021/01/05 23:05:31;;;;;;;27.20;12.10;;;;;;;;;;12885128;23;20590;-62
2021/01/05 23:10:34;;;;;;;23.77;11.87;;;;;;;;;;12882871;23;20203;-61
2021/01/05 23:15:37;;;;;;;23.93;11.80;;;;;;;;;;12886892;23;20175;-63
2021/01/05 23:20:41;;;;;;;23.83;12.00;;;;;;;;;;12883956;23;20915;-62
2021/01/05 23:25:45;;;;;;;23.40;12.53;;;;;;;;;;12885683;23;20175;-62
2021/01/05 23:30:48;;;;;;;26.07;13.07;;;;;;;;;;12885086;23;20890;-61
2021/01/05 23:35:50;;;;;;;24.17;13.30;;;;;;;;;;12887732;23;20186;-61
2021/01/05 23:40:52;;;;;;;27.93;13.17;;;;;;;;;;12883329;23;20605;-61
2021/01/05 23:45:56;;;;;;;27.30;12.87;;;;;;;;;;12886045;23;20694;-62
2021/01/05 23:50:59;;;;;;;24.43;13.37;;;;;;;;;;12884239;23;20195;-62
2021/01/05 23:56:01;;;;;;;27.13;12.90;;;;;;;;;;12885811;23;20210;-61
